Time;durP1;ratioP1;P1;durP2;ratioP2;P2;SDS_P1;SDS_P2;PMS_P1;PMS_P2;Temp;Humidity;BMP_temperature;BMP_pressure;BME280_temperature;BME280_humidity;BME280_pressure;Samples;Min_cycle;Max_cycle;Signal;HPM_P1;HPM_P2
2021/06/06 00:00:14;;;;;;;6.50;5.90;;;21.50;44.00;;;;;;4955905;29;20411;-77
2021/06/06 00:02:39;;;;;;;7.00;6.40;;;21.50;43.90;;;;;;4955287;28;20595;-77
2021/06/06 00:05:06;;;;;;;6.63;6.03;;;21.50;43.90;;;;;;4955267;29;20507;-76
2021/06/06 00:07:31;;;;;;;8.80;7.17;;;21.50;43.90;;;;;;4955122;29;20222;-77
2021/06/06 00:09:57;;;;;;;6.83;6.20;;;21.50;43.90;;;;;;4937881;29;20430;-77
2021/06/06 00:12:24;;;;;;;6.83;6.30;;;21.50;43.80;;;;;;4938115;28;20807;-77
2021/06/06 00:14:49;;;;;;;6.77;6.13;;;21.50;43.80;;;;;;4938193;29;20783;-77
2021/06/06 00:17:15;;;;;;;7.57;6.80;;;21.50;43.70;;;;;;4937561;29;20423;-77
2021/06/06 00:19:41;;;;;;;7.33;6.47;;;21.50;43.70;;;;;;4955124;29;20277;-75
2021/06/06 00:22:07;;;;;;;7.17;6.47;;;21.50;43.70;;;;;;4955006;28;20177;-75
2021/06/06 00:24:36;;;;;;;6.87;6.10;;;21.50;43.70;;;;;;4955043;29;20222;-76
2021/06/06 00:27:01;;;;;;;6.47;5.97;;;21.50;43.60;;;;;;4955127;29;20473;-78
2021/06/06 00:29:28;;;;;;;6.53;5.93;;;21.40;43.50;;;;;;4938172;29;20423;-77
2021/06/06 00:31:54;;;;;;;6.53;5.80;;;21.40;43.50;;;;;;4937625;29;20471;-76
2021/06/06 00:34:24;;;;;;;7.80;6.37;;;21.50;43.50;;;;;;4955428;28;20463;-77
2021/06/06 00:36:50;;;;;;;6.03;5.43;;;21.50;43.40;;;;;;4953994;29;20864;-77
2021/06/06 00:39:16;;;;;;;6.13;5.50;;;21.50;43.40;;;;;;4955026;29;20498;-76
2021/06/06 00:41:44;;;;;;;6.50;6.00;;;21.50;43.40;;;;;;4954882;29;20250;-75
2021/06/06 00:44:13;;;;;;;6.47;5.87;;;21.40;43.30;;;;;;4953386;28;20202;-77
2021/06/06 00:46:41;;;;;;;6.53;5.83;;;21.40;43.30;;;;;;4937876;29;20426;-77
2021/06/06 00:49:07;;;;;;;7.37;6.67;;;21.40;43.30;;;;;;4955733;29;20510;-77
2021/06/06 00:51:43;;;;;;;6.17;5.67;;;21.40;43.20;;;;;;4957004;29;20491;-77
2021/06/06 00:54:20;;;;;;;7.00;6.10;;;21.40;43.20;;;;;;4937588;29;20702;-77
2021/06/06 00:56:49;;;;;;;6.77;6.07;;;21.40;43.20;;;;;;4954532;29;20434;-77
2021/06/06 00:59:20;;;;;;;5.73;5.33;;;21.40;43.10;;;;;;4954378;29;20905;-78
2021/06/06 01:01:45;;;;;;;6.93;6.37;;;21.40;43.10;;;;;;4954245;29;20766;-77
2021/06/06 01:04:11;;;;;;;5.57;5.03;;;21.40;43.10;;;;;;4938471;29;20439;-78
2021/06/06 01:06:41;;;;;;;6.20;5.60;;;21.40;43.10;;;;;;4955708;29;20659;-78
2021/06/06 01:09:08;;;;;;;6.57;5.33;;;21.40;43.00;;;;;;4955471;29;20175;-79
2021/06/06 01:12:02;;;;;;;8.10;6.17;;;21.40;43.00;;;;;;4954230;29;20459;-77
2021/06/06 01:14:36;;;;;;;5.60;5.10;;;21.40;43.00;;;;;;4954152;28;20435;-78
2021/06/06 01:17:25;;;;;;;6.10;5.70;;;21.40;42.90;;;;;;4954501;29;20446;-76
2021/06/06 01:20:09;;;;;;;5.60;5.10;;;21.40;42.90;;;;;;4955909;29;20423;-77
2021/06/06 01:22:58;;;;;;;6.10;5.60;;;21.40;42.90;;;;;;4938766;29;20988;-77
2021/06/06 01:25:27;;;;;;;5.57;5.17;;;21.40;42.90;;;;;;4954609;29;20447;-78
2021/06/06 01:28:04;;;;;;;6.80;5.57;;;21.40;42.80;;;;;;4938940;29;20423;-77
2021/06/06 01:30:33;;;;;;;6.40;5.80;;;21.40;42.80;;;;;;4955103;29;20438;-77
2021/06/06 01:33:06;;;;;;;5.13;4.77;;;21.40;42.80;;;;;;4954516;28;20443;-77
2021/06/06 01:35:37;;;;;;;5.20;4.80;;;21.40;42.80;;;;;;4936801;29;20426;-77
2021/06/06 01:38:11;;;;;;;6.73;6.13;;;21.40;42.80;;;;;;4954231;29;20415;-77
2021/06/06 01:40:40;;;;;;;7.43;5.40;;;21.40;42.70;;;;;;4951986;29;20796;-76
2021/06/06 01:43:15;;;;;;;5.57;4.87;;;21.40;42.70;;;;;;4954072;28;20416;-77
2021/06/06 01:45:51;;;;;;;5.00;4.60;;;21.40;42.70;;;;;;4937495;29;20418;-78
2021/06/06 01:48:17;;;;;;;5.67;5.07;;;21.40;42.70;;;;;;4956037;29;20418;-78
2021/06/06 01:50:55;;;;;;;6.10;5.50;;;21.40;42.60;;;;;;4955851;29;20403;-78
2021/06/06 01:53:22;;;;;;;5.77;5.30;;;21.40;42.60;;;;;;4954589;28;20206;-78
2021/06/06 01:55:52;;;;;;;5.83;5.33;;;21.40;42.50;;;;;;4955512;29;20419;-77
2021/06/06 01:58:19;;;;;;;5.30;4.87;;;21.40;42.60;;;;;;4939863;29;20427;-78
2021/06/06 02:00:50;;;;;;;5.27;4.87;;;21.30;42.40;;;;;;4960538;29;20448;-78
2021/06/06 02:03:15;;;;;;;5.30;4.63;;;21.40;42.50;;;;;;4943092;29;20442;-78
2021/06/06 02:05:42;;;;;;;5.53;5.13;;;21.30;42.40;;;;;;4959245;29;20505;-77
2021/06/06 02:08:11;;;;;;;5.83;4.43;;;21.30;42.30;;;;;;4959927;29;20167;-76
2021/06/06 02:10:45;;;;;;;5.37;4.97;;;21.30;42.30;;;;;;4942548;29;20430;-77
2021/06/06 02:13:23;;;;;;;5.37;4.87;;;21.30;42.30;;;;;;4959353;28;20433;-77
2021/06/06 02:15:55;;;;;;;5.40;4.97;;;21.30;42.40;;;;;;4959514;29;20411;-77
2021/06/06 02:18:25;;;;;;;5.60;5.10;;;21.30;42.20;;;;;;4959355;29;20560;-77
2021/06/06 02:20:50;;;;;;;5.03;4.57;;;21.40;42.30;;;;;;4941898;29;20426;-77
2021/06/06 02:23:23;;;;;;;6.30;5.37;;;21.30;42.20;;;;;;4959506;28;20941;-77
2021/06/06 02:26:20;;;;;;;5.23;4.83;;;21.40;42.30;;;;;;4959321;29;20255;-78
2021/06/06 02:28:58;;;;;;;4.70;4.30;;;21.40;42.20;;;;;;4959320;29;20430;-78
2021/06/06 02:31:46;;;;;;;4.83;4.43;;;21.30;42.20;;;;;;4958133;28;20462;-78
2021/06/06 02:34:18;;;;;;;5.50;5.10;;;21.30;42.10;;;;;;4942566;29;20450;-77
2021/06/06 02:36:56;;;;;;;5.30;4.90;;;21.30;42.10;;;;;;4957733;29;20426;-78
2021/06/06 02:39:26;;;;;;;5.33;4.90;;;21.30;42.00;;;;;;4959080;29;20486;-78
2021/06/06 02:41:57;;;;;;;4.27;4.03;;;21.30;42.00;;;;;;4959249;29;20782;-77
2021/06/06 02:44:29;;;;;;;4.67;4.37;;;21.30;42.00;;;;;;4958578;28;20441;-77
2021/06/06 02:46:59;;;;;;;5.33;4.93;;;21.30;42.00;;;;;;4941469;29;20972;-78
2021/06/06 02:49:29;;;;;;;4.77;4.37;;;21.30;42.00;;;;;;4940973;29;20466;-77
2021/06/06 02:52:17;;;;;;;4.90;4.50;;;21.30;42.00;;;;;;4941063;29;20956;-77
2021/06/06 02:54:58;;;;;;;5.37;4.97;;;21.30;41.90;;;;;;4959128;29;20435;-78
2021/06/06 02:57:26;;;;;;;4.70;4.40;;;21.30;41.90;;;;;;4941244;29;20423;-77
2021/06/06 03:00:00;;;;;;;5.17;4.70;;;21.30;41.80;;;;;;4958311;29;20419;-77
2021/06/06 03:02:36;;;;;;;4.80;4.37;;;21.30;41.80;;;;;;4940810;28;20538;-78
2021/06/06 03:05:07;;;;;;;4.27;4.07;;;21.30;41.80;;;;;;4941165;29;20436;-75
2021/06/06 03:07:46;;;;;;;4.40;4.10;;;21.30;41.70;;;;;;4957142;29;20423;-77
2021/06/06 03:10:14;;;;;;;4.37;4.03;;;21.30;41.70;;;;;;4940697;29;20419;-78
2021/06/06 03:12:40;;;;;;;5.13;4.77;;;21.30;41.70;;;;;;4957671;28;20588;-77
2021/06/06 03:15:09;;;;;;;4.60;4.23;;;21.30;41.60;;;;;;4958211;29;20422;-77
2021/06/06 03:17:42;;;;;;;4.83;4.50;;;21.30;41.60;;;;;;4941239;29;20825;-78
2021/06/06 03:20:20;;;;;;;4.83;4.53;;;21.30;41.60;;;;;;4957575;29;20407;-76
2021/06/06 03:22:48;;;;;;;4.23;3.93;;;21.30;41.60;;;;;;4957370;28;20434;-77
2021/06/06 03:25:40;;;;;;;4.93;4.53;;;21.30;41.60;;;;;;4957779;29;20415;-75
2021/06/06 03:28:08;;;;;;;5.37;4.87;;;21.30;41.50;;;;;;4939687;29;20419;-77
2021/06/06 03:30:39;;;;;;;4.47;4.10;;;21.30;41.50;;;;;;4958026;28;20439;-77
2021/06/06 03:33:11;;;;;;;4.30;4.00;;;21.30;41.50;;;;;;4957063;28;20435;-77
2021/06/06 03:35:37;;;;;;;5.63;3.97;;;21.30;41.50;;;;;;4939710;29;20420;-76
2021/06/06 03:38:03;;;;;;;4.10;3.80;;;21.30;41.50;;;;;;4957694;29;20407;-78
2021/06/06 03:40:33;;;;;;;4.63;4.30;;;21.30;41.40;;;;;;4957134;29;20168;-77
2021/06/06 03:42:58;;;;;;;4.13;3.83;;;21.30;41.50;;;;;;4957854;28;20438;-78
2021/06/06 03:45:25;;;;;;;4.33;4.03;;;21.30;41.50;;;;;;4958138;29;20881;-77
2021/06/06 03:47:53;;;;;;;4.80;4.50;;;21.30;42.20;;;;;;4958300;29;20217;-77
2021/06/06 03:50:19;;;;;;;4.63;4.23;;;21.30;41.40;;;;;;4939788;29;20419;-77
2021/06/06 03:52:44;;;;;;;5.13;4.73;;;21.30;41.50;;;;;;4956343;28;20817;-76
2021/06/06 03:55:13;;;;;;;4.50;4.10;;;21.30;41.50;;;;;;4956463;29;20171;-76
2021/06/06 03:57:38;;;;;;;4.87;4.57;;;21.20;41.30;;;;;;4956452;29;20261;-77
2021/06/06 04:00:14;;;;;;;4.63;4.33;;;21.30;41.50;;;;;;4956576;29;20505;-77
2021/06/06 04:02:41;;;;;;;4.27;3.90;;;21.30;41.50;;;;;;4956634;28;20195;-76
2021/06/06 04:05:08;;;;;;;4.23;3.97;;;21.30;41.50;;;;;;4938422;29;20422;-77
2021/06/06 04:07:33;;;;;;;4.30;4.00;;;21.30;41.50;;;;;;4938370;29;20457;-76
2021/06/06 04:10:01;;;;;;;4.70;4.30;;;21.30;41.60;;;;;;4959720;28;20898;-76
2021/06/06 04:12:26;;;;;;;4.47;4.17;;;21.30;41.50;;;;;;4959476;28;20571;-76
2021/06/06 04:14:52;;;;;;;4.60;4.20;;;21.30;42.40;;;;;;4956903;29;20415;-78
2021/06/06 04:17:18;;;;;;;4.83;4.50;;;21.40;42.50;;;;;;4939605;29;20175;-78
2021/06/06 04:19:44;;;;;;;5.37;4.30;;;21.50;42.70;;;;;;4956920;28;20446;-78
2021/06/06 04:22:10;;;;;;;5.33;4.83;;;21.40;42.90;;;;;;4940266;28;20519;-78
2021/06/06 04:24:36;;;;;;;4.90;4.40;;;21.50;42.80;;;;;;4966579;28;20194;-78
2021/06/06 04:27:02;;;;;;;9.07;4.50;;;21.50;43.40;;;;;;4957566;29;20419;-78
2021/06/06 04:29:27;;;;;;;5.40;4.90;;;21.50;43.20;;;;;;4940645;29;20183;-78
2021/06/06 04:31:58;;;;;;;6.20;5.10;;;21.50;43.40;;;;;;4941038;29;20796;-78
2021/06/06 04:34:23;;;;;;;6.60;4.90;;;21.50;43.30;;;;;;4955965;28;20195;-78
2021/06/06 04:36:49;;;;;;;4.90;4.13;;;21.50;43.40;;;;;;4957081;29;20941;-77
2021/06/06 04:39:17;;;;;;;4.80;4.40;;;21.50;43.40;;;;;;4958190;29;20226;-79
2021/06/06 04:41:43;;;;;;;6.33;4.47;;;21.50;43.30;;;;;;4956573;28;20423;-79
2021/06/06 04:44:08;;;;;;;4.30;4.00;;;21.40;43.20;;;;;;4958974;28;20471;-79
2021/06/06 04:46:34;;;;;;;4.43;4.13;;;21.40;43.10;;;;;;4958464;29;20411;-79
2021/06/06 04:49:00;;;;;;;4.77;4.10;;;21.50;43.10;;;;;;4957388;29;20195;-78
2021/06/06 04:51:26;;;;;;;4.73;4.33;;;21.40;43.30;;;;;;4947615;28;20198;-78
2021/06/06 04:53:53;;;;;;;4.13;3.83;;;21.40;43.10;;;;;;4958269;28;20505;-78
2021/06/06 04:56:22;;;;;;;6.40;3.90;;;21.40;43.20;;;;;;4956635;28;20415;-78
2021/06/06 04:58:48;;;;;;;4.40;4.10;;;21.50;43.20;;;;;;4958713;29;20407;-78
2021/06/06 05:01:14;;;;;;;4.17;3.87;;;21.50;43.10;;;;;;4955074;28;20427;-79
2021/06/06 05:03:40;;;;;;;3.63;3.43;;;21.40;43.00;;;;;;4950792;28;20223;-78
2021/06/06 05:06:06;;;;;;;4.30;4.00;;;21.50;43.10;;;;;;4973864;28;20418;-78
2021/06/06 05:08:32;;;;;;;4.60;4.20;;;21.50;43.20;;;;;;4941438;29;20258;-79
2021/06/06 05:10:58;;;;;;;4.10;3.80;;;21.50;43.20;;;;;;4959066;29;20266;-78
2021/06/06 05:13:24;;;;;;;4.10;3.90;;;21.50;43.40;;;;;;4958652;28;20493;-79
2021/06/06 05:15:52;;;;;;;4.40;4.10;;;21.50;43.40;;;;;;4957201;28;20935;-79
2021/06/06 05:18:19;;;;;;;3.83;3.63;;;21.50;43.30;;;;;;4939571;29;20175;-79
2021/06/06 05:20:47;;;;;;;4.53;4.13;;;21.50;43.30;;;;;;4940746;29;20428;-78
2021/06/06 05:23:13;;;;;;;4.20;3.80;;;21.50;43.40;;;;;;4959145;28;20434;-78
2021/06/06 05:25:41;;;;;;;3.47;3.27;;;21.50;43.30;;;;;;4958281;28;20442;-78
2021/06/06 05:28:11;;;;;;;4.30;4.00;;;21.50;43.20;;;;;;4941796;29;20490;-77
2021/06/06 05:30:38;;;;;;;4.47;4.17;;;21.50;43.30;;;;;;4942861;29;20435;-77
2021/06/06 05:33:05;;;;;;;3.97;3.77;;;21.50;43.20;;;;;;4962725;28;20470;-78
2021/06/06 05:35:32;;;;;;;6.67;3.70;;;21.40;43.10;;;;;;4962106;29;20442;-76
2021/06/06 05:37:58;;;;;;;3.50;3.20;;;21.40;43.10;;;;;;4945718;29;20419;-78
2021/06/06 05:40:31;;;;;;;4.00;3.70;;;21.40;43.10;;;;;;4945186;29;20439;-78
2021/06/06 05:42:57;;;;;;;3.90;3.70;;;21.40;43.10;;;;;;4961828;28;20537;-78
2021/06/06 05:45:24;;;;;;;4.47;4.17;;;21.40;43.10;;;;;;4962677;29;20439;-78
2021/06/06 05:47:50;;;;;;;3.57;3.37;;;21.40;43.10;;;;;;4944781;29;20454;-77
2021/06/06 05:50:21;;;;;;;3.90;3.60;;;21.30;42.90;;;;;;4961373;29;20514;-78
2021/06/06 05:52:47;;;;;;;3.23;3.03;;;21.30;42.90;;;;;;4962221;28;20463;-78
2021/06/06 05:55:20;;;;;;;3.93;3.73;;;21.30;42.90;;;;;;4961544;29;20434;-78
2021/06/06 05:57:45;;;;;;;4.90;3.20;;;21.30;42.80;;;;;;4961447;29;20461;-78
2021/06/06 06:00:15;;;;;;;4.03;3.73;;;21.40;42.90;;;;;;4945138;29;20422;-78
2021/06/06 06:02:41;;;;;;;3.80;3.50;;;21.40;42.80;;;;;;4961819;28;20262;-78
2021/06/06 06:05:07;;;;;;;3.47;3.30;;;21.30;42.80;;;;;;4944913;29;20962;-78
2021/06/06 06:07:33;;;;;;;3.30;3.03;;;21.30;42.70;;;;;;4961835;29;20176;-79
2021/06/06 06:09:59;;;;;;;3.90;3.70;;;21.30;42.60;;;;;;4962673;29;20414;-78
2021/06/06 06:12:25;;;;;;;4.70;3.53;;;21.30;43.30;;;;;;4961288;28;20207;-78
2021/06/06 06:14:50;;;;;;;3.47;3.23;;;21.30;42.50;;;;;;4944213;29;20199;-77
2021/06/06 06:17:16;;;;;;;3.10;2.90;;;21.30;42.50;;;;;;4960536;29;20230;-78
2021/06/06 06:19:42;;;;;;;3.33;3.13;;;21.30;42.40;;;;;;4945618;29;20218;-77
2021/06/06 06:22:08;;;;;;;3.40;3.10;;;21.30;42.40;;;;;;4961727;28;20434;-78
2021/06/06 06:24:35;;;;;;;3.23;3.03;;;21.30;42.40;;;;;;4962202;29;20183;-78
2021/06/06 06:27:02;;;;;;;3.70;3.40;;;21.30;42.40;;;;;;4945356;29;20243;-78
2021/06/06 06:29:28;;;;;;;3.73;3.53;;;21.30;42.30;;;;;;4961996;29;20441;-78
2021/06/06 06:31:54;;;;;;;3.83;3.63;;;21.30;42.30;;;;;;4943158;29;20477;-79
2021/06/06 06:34:20;;;;;;;3.50;3.20;;;21.30;42.40;;;;;;4942001;29;20545;-78
2021/06/06 06:36:47;;;;;;;3.77;3.47;;;21.30;42.40;;;;;;4960208;28;20787;-77
2021/06/06 06:39:12;;;;;;;4.07;3.73;;;21.30;42.40;;;;;;4947242;28;20429;-77
2021/06/06 06:42:06;;;;;;;13.90;3.20;;;21.30;43.10;;;;;;4962937;28;20438;-77
2021/06/06 06:44:34;;;;;;;4.90;4.40;;;21.40;43.20;;;;;;4944841;29;20190;-79
2021/06/06 06:47:01;;;;;;;6.00;4.57;;;21.30;43.20;;;;;;4959710;29;20427;-77
2021/06/06 06:49:27;;;;;;;4.80;4.03;;;21.30;43.10;;;;;;4959975;29;20439;-76
2021/06/06 06:51:54;;;;;;;7.33;5.07;;;21.30;43.10;;;;;;4958767;29;20463;-77
2021/06/06 06:54:20;;;;;;;4.27;3.97;;;21.40;43.50;;;;;;4958007;28;20818;-77
2021/06/06 06:56:46;;;;;;;5.57;4.77;;;21.40;43.80;;;;;;4957686;29;20422;-76
2021/06/06 06:59:12;;;;;;;4.67;4.37;;;21.40;43.90;;;;;;4940443;29;20226;-77
2021/06/06 07:01:37;;;;;;;5.30;4.70;;;21.40;44.00;;;;;;4957160;29;20926;-75
2021/06/06 07:04:03;;;;;;;4.90;4.50;;;21.40;43.90;;;;;;4957130;28;20206;-76
2021/06/06 07:06:29;;;;;;;4.73;4.30;;;21.40;44.00;;;;;;4940808;29;20179;-78
2021/06/06 07:08:58;;;;;;;4.40;4.00;;;21.40;43.80;;;;;;4959118;29;20415;-77
2021/06/06 07:11:24;;;;;;;4.77;4.47;;;21.50;44.00;;;;;;4941492;29;20207;-77
2021/06/06 07:13:51;;;;;;;4.63;4.23;;;21.40;44.20;;;;;;4958935;28;20442;-78
2021/06/06 07:16:19;;;;;;;4.80;4.50;;;21.50;44.20;;;;;;4957718;29;20190;-76
2021/06/06 07:22:49;;;;;;;5.50;4.93;;;21.50;44.50;;;;;;4957939;28;20937;-77
2021/06/06 07:32:04;;;;;;;7.50;4.80;;;21.50;44.30;;;;;;4914135;29;20478;-75
2021/06/06 07:35:10;;;;;;;5.43;5.00;;;21.40;44.40;;;;;;4885874;29;20457;-77
2021/06/06 07:38:30;;;;;;;5.13;4.63;;;21.40;44.10;;;;;;4918814;29;20424;-77
2021/06/06 07:49:12;;;;;;;4.33;3.77;;;21.30;43.90;;;;;;4883742;29;20435;-78
2021/06/06 07:52:49;;;;;;;4.60;4.30;;;21.30;43.90;;;;;;4889549;29;20483;-78
2021/06/06 07:56:15;;;;;;;4.20;3.80;;;21.40;44.00;;;;;;4885461;29;20958;-78
2021/06/06 08:06:52;;;;;;;4.60;4.30;;;21.30;43.60;;;;;;4862077;29;20447;-78
2021/06/06 08:10:24;;;;;;;5.40;5.00;;;21.30;43.50;;;;;;4759541;30;20433;-78
2021/06/06 08:13:12;;;;;;;4.17;3.97;;;21.30;43.50;;;;;;4757945;30;21075;-78
2021/06/06 08:16:25;;;;;;;4.80;4.30;;;21.30;43.50;;;;;;4823978;29;20544;-77
2021/06/06 08:19:05;;;;;;;4.13;3.80;;;21.30;43.40;;;;;;4824886;29;20554;-78
2021/06/06 08:22:25;;;;;;;4.53;4.23;;;21.30;43.40;;;;;;4941453;29;20467;-79
2021/06/06 08:25:27;;;;;;;4.43;4.17;;;21.30;43.20;;;;;;4917050;29;20425;-77
2021/06/06 08:31:12;;;;;;;5.27;4.77;;;21.20;43.10;;;;;;4876130;29;20473;-77
2021/06/06 08:33:43;;;;;;;4.37;4.07;;;21.30;43.10;;;;;;4885521;29;20454;-76
2021/06/06 08:36:13;;;;;;;4.70;4.30;;;21.30;43.10;;;;;;4904784;29;20518;-77
2021/06/06 08:38:39;;;;;;;5.13;4.57;;;21.30;43.00;;;;;;4936482;29;20411;-77
2021/06/06 08:41:24;;;;;;;4.80;4.40;;;21.30;43.10;;;;;;4936876;29;20451;-76
2021/06/06 08:44:13;;;;;;;7.00;5.80;;;21.30;43.20;;;;;;4936856;29;20986;-79
2021/06/06 08:46:52;;;;;;;7.03;5.27;;;21.30;43.50;;;;;;4942659;29;20856;-76
2021/06/06 08:49:43;;;;;;;7.27;6.40;;;21.30;43.60;;;;;;4948902;29;20433;-81
2021/06/06 08:52:58;;;;;;;6.83;5.60;;;21.50;44.40;;;;;;4949433;28;20549;-77
2021/06/06 08:55:37;;;;;;;8.17;6.70;;;21.50;43.80;;;;;;4956117;29;20451;-77
2021/06/06 08:58:52;;;;;;;7.53;6.83;;;21.50;43.90;;;;;;4956711;29;20414;-78
2021/06/06 09:01:29;;;;;;;7.97;6.50;;;21.50;44.10;;;;;;4948818;28;20454;-78
2021/06/06 09:03:57;;;;;;;8.43;7.63;;;21.50;44.70;;;;;;4956742;28;20430;-77
2021/06/06 09:06:50;;;;;;;8.37;7.17;;;21.50;44.70;;;;;;4956012;28;20419;-77
2021/06/06 09:09:19;;;;;;;9.27;6.40;;;21.50;45.10;;;;;;4950294;28;20438;-77
2021/06/06 09:11:48;;;;;;;15.17;7.23;;;21.50;44.60;;;;;;4956762;29;20824;-77
2021/06/06 09:14:20;;;;;;;7.73;7.03;;;21.50;45.20;;;;;;4953802;28;20455;-77
2021/06/06 09:17:04;;;;;;;8.17;7.10;;;21.50;45.40;;;;;;4954543;28;20423;-77
2021/06/06 09:19:54;;;;;;;13.20;6.73;;;21.50;45.80;;;;;;4954793;29;20505;-78
2021/06/06 09:22:40;;;;;;;7.50;6.90;;;21.50;45.70;;;;;;4955140;28;20498;-78
2021/06/06 09:25:18;;;;;;;6.70;6.10;;;21.50;45.90;;;;;;4956970;28;20489;-79
2021/06/06 09:27:43;;;;;;;6.77;6.17;;;21.50;46.50;;;;;;4956302;28;20807;-77
2021/06/06 09:30:16;;;;;;;6.03;5.53;;;21.50;45.70;;;;;;4938713;29;20424;-77
2021/06/06 09:32:43;;;;;;;6.33;5.73;;;21.50;45.70;;;;;;4967201;28;20253;-78
2021/06/06 09:35:30;;;;;;;6.17;5.47;;;21.50;45.60;;;;;;4938233;29;20439;-76
2021/06/06 09:38:15;;;;;;;9.53;5.97;;;21.50;45.50;;;;;;4958467;29;20812;-78
2021/06/06 09:40:46;;;;;;;6.00;5.50;;;21.50;45.30;;;;;;4957251;29;20411;-79
2021/06/06 09:43:31;;;;;;;6.83;5.90;;;21.50;45.10;;;;;;4940555;29;20459;-77
2021/06/06 09:46:09;;;;;;;10.67;6.17;;;21.50;45.60;;;;;;4957356;29;20426;-79
2021/06/06 09:48:40;;;;;;;6.87;6.10;;;21.50;45.30;;;;;;4956855;29;20439;-78
2021/06/06 09:51:13;;;;;;;6.47;5.80;;;21.50;45.10;;;;;;4958674;28;20458;-78
2021/06/06 09:53:41;;;;;;;9.00;6.07;;;21.50;45.00;;;;;;4940903;28;20461;-78
2021/06/06 09:56:23;;;;;;;8.37;5.50;;;21.50;45.10;;;;;;4958179;28;20426;-79
2021/06/06 09:58:49;;;;;;;6.63;6.03;;;21.50;45.10;;;;;;4977657;28;20422;-78
2021/06/06 10:01:29;;;;;;;5.77;4.90;;;21.50;45.10;;;;;;4959656;28;20469;-79
2021/06/06 10:04:02;;;;;;;7.27;6.57;;;21.50;45.00;;;;;;4975997;28;20477;-79
2021/06/06 10:06:40;;;;;;;8.00;5.57;;;21.50;45.10;;;;;;4976551;28;20956;-78
2021/06/06 10:09:13;;;;;;;10.27;5.60;;;21.50;45.00;;;;;;4959746;28;20900;-78
2021/06/06 10:12:00;;;;;;;6.30;5.87;;;21.50;45.00;;;;;;4976668;28;20453;-77
2021/06/06 10:14:36;;;;;;;7.77;5.80;;;21.50;45.00;;;;;;4974870;28;20445;-78
2021/06/06 10:17:06;;;;;;;6.47;5.87;;;21.50;44.90;;;;;;4976367;28;20436;-78
2021/06/06 10:19:43;;;;;;;5.43;4.93;;;21.50;45.00;;;;;;4978559;28;20418;-77
2021/06/06 10:22:23;;;;;;;6.10;5.50;;;21.50;44.90;;;;;;4979737;28;20500;-77
2021/06/06 10:24:57;;;;;;;5.70;5.20;;;21.50;45.00;;;;;;4979990;28;20425;-77
2021/06/06 10:27:32;;;;;;;6.30;5.80;;;21.50;44.90;;;;;;4979432;28;20420;-78
2021/06/06 10:30:11;;;;;;;5.47;5.07;;;21.50;44.80;;;;;;4979069;28;20421;-78
2021/06/06 10:32:43;;;;;;;5.70;5.20;;;21.50;44.70;;;;;;4978653;28;20473;-77
2021/06/06 10:35:12;;;;;;;5.40;4.97;;;21.50;44.80;;;;;;4978985;28;20493;-78
2021/06/06 10:37:46;;;;;;;5.10;4.70;;;21.50;44.80;;;;;;4978548;28;20422;-78
2021/06/06 10:40:20;;;;;;;5.10;4.70;;;21.50;44.70;;;;;;4975651;28;20951;-78
2021/06/06 10:43:00;;;;;;;4.97;4.57;;;21.50;44.70;;;;;;4966087;28;20497;-77
2021/06/06 10:45:36;;;;;;;5.63;4.70;;;21.50;44.80;;;;;;4960521;28;20564;-76
2021/06/06 10:48:08;;;;;;;5.23;4.83;;;21.50;44.80;;;;;;4940338;29;20426;-77
2021/06/06 10:50:42;;;;;;;6.40;5.43;;;21.50;44.70;;;;;;4956917;29;20506;-77
2021/06/06 10:53:29;;;;;;;6.00;5.40;;;21.50;44.70;;;;;;4940099;29;20474;-77
2021/06/06 10:56:11;;;;;;;6.93;6.20;;;21.50;44.80;;;;;;4930868;28;20868;-77
2021/06/06 10:58:56;;;;;;;6.23;5.60;;;21.50;44.80;;;;;;4954271;29;20434;-76
2021/06/06 11:01:35;;;;;;;6.03;5.53;;;21.50;44.80;;;;;;4958182;28;20419;-77
2021/06/06 11:04:31;;;;;;;7.13;6.43;;;21.50;44.90;;;;;;4949555;29;20453;-76
2021/06/06 11:07:08;;;;;;;6.70;6.10;;;21.50;45.30;;;;;;4965835;28;20426;-76
2021/06/06 11:09:36;;;;;;;6.47;5.97;;;21.50;45.40;;;;;;4965096;28;20439;-77
2021/06/06 11:12:12;;;;;;;6.67;5.87;;;21.50;45.40;;;;;;4959684;29;20466;-78
2021/06/06 11:14:49;;;;;;;5.90;5.40;;;21.50;45.50;;;;;;4941495;29;20427;-76
2021/06/06 11:17:29;;;;;;;6.60;6.10;;;21.60;45.40;;;;;;4956752;29;20815;-76
2021/06/06 11:20:06;;;;;;;5.70;5.20;;;21.60;45.40;;;;;;4959713;29;20407;-79
2021/06/06 11:22:35;;;;;;;9.17;6.20;;;21.60;45.30;;;;;;4954639;28;20822;-79
2021/06/06 11:25:01;;;;;;;6.43;5.60;;;21.60;45.80;;;;;;4955349;28;20425;-78
2021/06/06 11:27:36;;;;;;;6.67;6.17;;;21.60;45.70;;;;;;4962132;28;20418;-78
2021/06/06 11:30:28;;;;;;;8.03;6.80;;;21.60;45.60;;;;;;4958105;28;20453;-80
2021/06/06 11:33:06;;;;;;;7.20;6.50;;;21.60;45.50;;;;;;4960371;28;20904;-77
2021/06/06 11:35:35;;;;;;;8.83;6.83;;;21.60;45.70;;;;;;4965830;28;20741;-76
2021/06/06 11:38:19;;;;;;;7.60;6.90;;;21.60;45.70;;;;;;4960897;29;20435;-77
2021/06/06 11:40:48;;;;;;;7.47;6.87;;;21.60;45.80;;;;;;4959654;28;20482;-77
2021/06/06 11:43:27;;;;;;;7.80;7.13;;;21.60;46.10;;;;;;4968079;28;20525;-76
2021/06/06 11:45:54;;;;;;;8.33;7.33;;;21.60;46.00;;;;;;4956253;28;20431;-76
2021/06/06 11:48:37;;;;;;;6.87;6.27;;;21.60;46.00;;;;;;4964773;28;20426;-77
2021/06/06 11:51:06;;;;;;;7.27;6.57;;;21.60;45.90;;;;;;4957166;29;20465;-78
2021/06/06 11:53:50;;;;;;;7.57;6.97;;;21.50;45.80;;;;;;4968261;28;20423;-79
2021/06/06 11:56:24;;;;;;;7.43;6.83;;;21.60;45.90;;;;;;4963181;29;20446;-78
2021/06/06 11:59:22;;;;;;;8.80;7.90;;;21.50;45.70;;;;;;4960677;29;20420;-79
2021/06/06 12:01:58;;;;;;;16.73;9.47;;;21.50;45.60;;;;;;4937674;28;20481;-78
2021/06/06 12:04:34;;;;;;;15.93;11.27;;;21.50;45.60;;;;;;4937249;29;20665;-78
2021/06/06 12:07:23;;;;;;;12.53;11.23;;;21.50;45.60;;;;;;4938578;29;20463;-78
2021/06/06 12:09:50;;;;;;;13.27;10.30;;;21.50;45.70;;;;;;4937194;29;20432;-78
2021/06/06 12:12:29;;;;;;;16.83;11.93;;;21.50;45.60;;;;;;4938217;29;20865;-78
2021/06/06 12:15:10;;;;;;;14.60;11.30;;;21.50;45.50;;;;;;4937412;29;20427;-78
2021/06/06 12:17:37;;;;;;;17.53;13.00;;;21.50;45.40;;;;;;4937956;29;20424;-78
2021/06/06 12:20:16;;;;;;;12.90;11.60;;;21.50;45.30;;;;;;4938982;29;20483;-79
2021/06/06 12:22:42;;;;;;;12.77;11.47;;;21.50;45.50;;;;;;4939537;29;20479;-79
2021/06/06 12:25:13;;;;;;;13.83;11.30;;;21.60;45.50;;;;;;4940490;29;20852;-78
2021/06/06 12:27:44;;;;;;;12.57;10.40;;;21.50;45.50;;;;;;4939025;29;20175;-79
2021/06/06 12:30:36;;;;;;;13.70;12.00;;;21.50;45.50;;;;;;4938094;29;20483;-78
2021/06/06 12:33:10;;;;;;;16.10;10.90;;;21.50;45.40;;;;;;4939318;29;20490;-78
2021/06/06 12:35:44;;;;;;;11.17;10.27;;;21.50;45.50;;;;;;4956865;29;20414;-78
2021/06/06 12:38:11;;;;;;;12.00;10.87;;;21.50;45.40;;;;;;4940032;29;20430;-78
2021/06/06 12:40:39;;;;;;;12.50;10.30;;;21.50;45.40;;;;;;4939771;28;20479;-78
2021/06/06 12:43:07;;;;;;;11.77;10.77;;;21.50;45.30;;;;;;4957004;28;20442;-78
2021/06/06 12:45:40;;;;;;;12.00;10.83;;;21.50;45.40;;;;;;4956842;29;20415;-78
2021/06/06 12:48:15;;;;;;;11.03;9.90;;;21.50;45.30;;;;;;4957538;29;20458;-78
2021/06/06 12:50:43;;;;;;;11.50;10.50;;;21.50;45.30;;;;;;4956031;29;20426;-78
2021/06/06 12:53:15;;;;;;;11.23;10.23;;;21.50;45.30;;;;;;4955299;28;20481;-78
2021/06/06 12:55:42;;;;;;;10.60;9.60;;;21.50;45.20;;;;;;4955116;28;20451;-77
2021/06/06 12:58:14;;;;;;;11.40;10.37;;;21.50;45.20;;;;;;4963127;28;20422;-76
2021/06/06 13:00:49;;;;;;;12.50;10.97;;;21.50;45.20;;;;;;4961852;28;20478;-79
2021/06/06 13:03:27;;;;;;;10.17;9.30;;;21.50;45.00;;;;;;4955081;28;20537;-77
2021/06/06 13:06:01;;;;;;;10.60;9.70;;;21.50;45.20;;;;;;4953671;29;20927;-78
2021/06/06 13:08:40;;;;;;;14.23;12.40;;;21.50;45.20;;;;;;4921837;29;20512;-78
2021/06/06 13:11:29;;;;;;;12.50;11.30;;;21.40;45.60;;;;;;4953651;28;20513;-77
2021/06/06 13:14:04;;;;;;;13.30;12.07;;;21.50;45.80;;;;;;4936126;29;20495;-77
